createdAt,value
2022-12-28T00:01:10.820Z,99493.41
2022-12-28T00:03:38.678Z,99487.61
2022-12-28T00:06:06.747Z,99492.92
2022-12-28T00:08:33.751Z,99486.52
2022-12-28T00:11:07.716Z,99482.89
2022-12-28T00:13:36.543Z,99480.95
2022-12-28T00:16:10.111Z,99485.73
2022-12-28T00:18:37.756Z,99485.13
2022-12-28T00:21:05.909Z,99481.58
2022-12-28T00:23:32.738Z,99482.91
2022-12-28T00:26:14.859Z,99483.29
2022-12-28T00:28:41.702Z,99479.88
2022-12-28T00:31:08.488Z,99481.48
2022-12-28T00:33:35.273Z,99480.86
2022-12-28T00:36:03.586Z,99485.89
2022-12-28T00:38:31.754Z,99484.30
2022-12-28T00:40:59.616Z,99479.80
2022-12-28T00:43:27.253Z,99479.78
2022-12-28T00:45:54.289Z,99482.11
2022-12-28T00:48:21.329Z,99482.12
2022-12-28T00:50:48.060Z,99485.80
2022-12-28T00:53:16.244Z,99489.05
2022-12-28T00:55:44.723Z,99490.40
2022-12-28T00:58:11.495Z,99488.17
2022-12-28T01:00:38.467Z,99490.38
2022-12-28T01:03:05.598Z,99488.52
2022-12-28T01:05:32.442Z,99490.80
2022-12-28T01:07:59.663Z,99488.30
2022-12-28T01:10:26.512Z,99487.98
2022-12-28T01:12:55.191Z,99485.69
2022-12-28T01:15:22.128Z,99487.30
2022-12-28T01:17:49.036Z,99485.75
2022-12-28T01:20:15.850Z,99487.92
2022-12-28T01:22:42.627Z,99487.08
2022-12-28T01:25:09.567Z,99488.05
2022-12-28T01:27:37.516Z,99484.00
2022-12-28T01:30:06.076Z,99486.04
2022-12-28T01:32:33.876Z,99488.55
2022-12-28T01:35:00.889Z,99486.02
2022-12-28T01:37:27.625Z,99484.66
2022-12-28T01:39:54.399Z,99485.09
2022-12-28T01:42:21.130Z,99481.09
2022-12-28T01:44:50.144Z,99478.53
2022-12-28T01:47:25.178Z,99473.68
2022-12-28T01:50:00.775Z,99473.30
2022-12-28T01:52:36.906Z,99473.23
2022-12-28T01:55:09.415Z,99469.50
2022-12-28T01:57:43.124Z,99469.75
2022-12-28T02:00:12.727Z,99470.67
2022-12-28T02:02:54.888Z,99469.88
2022-12-28T02:05:26.449Z,99464.77
2022-12-28T02:08:02.816Z,99462.59
2022-12-28T02:10:44.264Z,99462.09
2022-12-28T02:13:15.367Z,99448.39
2022-12-28T02:15:42.853Z,99443.64
2022-12-28T02:18:10.826Z,99439.83
2022-12-28T02:20:59.984Z,99445.92
2022-12-28T02:23:35.577Z,99444.34
2022-12-28T02:26:18.989Z,99443.91
2022-12-28T02:28:49.219Z,99444.01
2022-12-28T02:31:29.348Z,99443.83
2022-12-28T02:34:03.516Z,99433.14
2022-12-28T02:36:34.431Z,99427.92
2022-12-28T02:39:21.081Z,99414.27
2022-12-28T02:41:49.358Z,99407.39
2022-12-28T02:44:36.575Z,99402.21
2022-12-28T02:47:19.595Z,99403.19
2022-12-28T02:50:02.024Z,99407.70
2022-12-28T02:52:43.033Z,99408.40
2022-12-28T02:55:34.713Z,99412.99
2022-12-28T02:58:21.751Z,99405.28
2022-12-28T03:01:04.846Z,99393.97
2022-12-28T03:03:57.530Z,99395.50
2022-12-28T03:06:50.241Z,99394.20
2022-12-28T03:09:26.111Z,99382.05
2022-12-28T03:11:58.518Z,99376.06
2022-12-28T03:14:32.719Z,99376.85
2022-12-28T03:17:16.711Z,99378.02
2022-12-28T03:20:05.308Z,99384.30
2022-12-28T03:22:50.684Z,99383.52
2022-12-28T03:25:37.429Z,99384.34
2022-12-28T03:28:22.842Z,99394.20
2022-12-28T03:31:09.444Z,99400.55
2022-12-28T03:33:46.804Z,99395.00
2022-12-28T03:36:21.598Z,99394.33
2022-12-28T03:39:03.632Z,99394.79
2022-12-28T03:41:36.478Z,99387.59
2022-12-28T03:44:26.156Z,99388.63
2022-12-28T03:46:57.480Z,99377.78
2022-12-28T03:49:28.504Z,99377.27
2022-12-28T03:51:56.491Z,99375.87
2022-12-28T03:54:23.584Z,99374.48
2022-12-28T03:56:52.060Z,99370.30
2022-12-28T03:59:22.540Z,99368.56
2022-12-28T04:01:51.338Z,99364.36
2022-12-28T04:04:18.469Z,99360.80
2022-12-28T04:06:45.325Z,99362.16
2022-12-28T04:09:13.190Z,99361.05
2022-12-28T04:11:40.861Z,99356.08
2022-12-28T04:14:11.110Z,99357.83
2022-12-28T04:16:39.690Z,99356.73
2022-12-28T04:19:06.515Z,99354.04
2022-12-28T04:21:33.897Z,99353.30
2022-12-28T04:24:01.069Z,99356.27
2022-12-28T04:26:28.037Z,99353.77
2022-12-28T04:28:58.055Z,99349.40
2022-12-28T04:31:36.072Z,99338.41
2022-12-28T04:34:06.664Z,99324.55
2022-12-28T04:36:37.055Z,99322.69
2022-12-28T04:39:04.024Z,99329.71
2022-12-28T04:41:30.790Z,99334.33
2022-12-28T04:43:58.165Z,99328.87
2022-12-28T04:46:25.084Z,99322.79
2022-12-28T04:48:52.839Z,99324.20
2022-12-28T04:51:23.009Z,99319.33
2022-12-28T04:53:50.523Z,99314.08
2022-12-28T04:56:19.009Z,99313.34
2022-12-28T04:58:47.484Z,99306.38
2022-12-28T05:01:17.543Z,99311.77
2022-12-28T05:03:52.555Z,99316.64
2022-12-28T05:06:23.145Z,99315.11
2022-12-28T05:08:50.319Z,99317.61
2022-12-28T05:11:20.794Z,99314.35
2022-12-28T05:13:48.641Z,99309.92
2022-12-28T05:16:18.897Z,99305.73
2022-12-28T05:18:45.885Z,99300.23
2022-12-28T05:21:14.851Z,99298.54
2022-12-28T05:23:42.567Z,99299.11
2022-12-28T05:26:12.707Z,99298.54
2022-12-28T05:28:39.685Z,99302.11
2022-12-28T05:31:11.017Z,99296.85
2022-12-28T05:33:38.489Z,99290.08
2022-12-28T05:36:05.955Z,99286.63
2022-12-28T05:38:33.198Z,99286.45
2022-12-28T05:41:17.148Z,99284.62
2022-12-28T05:43:45.162Z,99285.24
2022-12-28T05:46:14.777Z,99286.11
2022-12-28T05:48:43.287Z,99285.88
2022-12-28T05:51:12.617Z,99285.16
2022-12-28T05:53:40.564Z,99281.27
2022-12-28T05:56:14.742Z,99278.23
2022-12-28T05:58:43.540Z,99281.73
2022-12-28T06:01:11.769Z,99284.36
2022-12-28T06:03:39.475Z,99279.42
2022-12-28T06:06:09.667Z,99279.41
2022-12-28T06:08:37.933Z,99279.23
2022-12-28T06:11:07.400Z,99281.73
2022-12-28T06:13:34.779Z,99275.01
2022-12-28T06:16:12.721Z,99271.81
2022-12-28T06:18:40.206Z,99264.02
2022-12-28T06:21:11.876Z,99264.41
2022-12-28T06:23:39.138Z,99263.20
2022-12-28T06:26:08.107Z,99263.09
2022-12-28T06:28:38.640Z,99263.16
2022-12-28T06:31:06.558Z,99264.70
2022-12-28T06:33:34.065Z,99263.10
2022-12-28T06:36:01.305Z,99258.66
2022-12-28T06:38:31.269Z,99257.56
2022-12-28T06:41:15.447Z,99254.23
2022-12-28T06:43:43.769Z,99251.38
2022-12-28T06:46:13.012Z,99251.34
2022-12-28T06:48:39.860Z,99250.11
2022-12-28T06:51:10.242Z,99250.98
2022-12-28T06:53:38.248Z,99250.44
2022-12-28T06:56:11.838Z,99251.37
2022-12-28T06:58:38.997Z,99254.55
2022-12-28T07:01:13.644Z,99242.73
2022-12-28T07:03:41.592Z,99241.55
2022-12-28T07:06:09.245Z,99241.66
2022-12-28T07:08:36.748Z,99237.97
2022-12-28T07:11:07.168Z,99239.02
2022-12-28T07:13:35.006Z,99238.69
2022-12-28T07:16:04.787Z,99238.22
2022-12-28T07:18:32.935Z,99242.61
2022-12-28T07:21:05.425Z,99240.19
2022-12-28T07:23:32.614Z,99230.50
2022-12-28T07:26:06.429Z,99233.65
2022-12-28T07:28:37.490Z,99234.46
2022-12-28T07:31:08.347Z,99233.26
2022-12-28T07:33:36.055Z,99232.21
2022-12-28T07:36:05.675Z,99227.92
2022-12-28T07:38:33.678Z,99225.20
2022-12-28T07:41:02.730Z,99222.63
2022-12-28T07:43:30.356Z,99221.08
2022-12-28T07:46:14.277Z,99219.73
2022-12-28T07:48:42.646Z,99224.80
2022-12-28T07:51:16.285Z,99224.02
2022-12-28T07:53:45.815Z,99224.30
2022-12-28T07:56:14.132Z,99227.86
2022-12-28T08:01:10.829Z,99219.54
2022-12-28T08:03:37.952Z,99222.79
2022-12-28T08:06:06.128Z,99223.95
2022-12-28T08:08:36.382Z,99218.98
2022-12-28T08:11:05.235Z,99215.27
2022-12-28T08:13:35.339Z,99208.60
2022-12-28T08:16:02.808Z,99206.63
2022-12-28T08:18:30.040Z,99205.48
2022-12-28T08:21:02.828Z,99205.25
2022-12-28T08:23:31.105Z,99204.77
2022-12-28T08:26:05.909Z,99204.93
2022-12-28T08:28:32.823Z,99202.88
2022-12-28T08:31:06.155Z,99202.30
2022-12-28T08:33:32.941Z,99201.11
2022-12-28T08:35:59.738Z,99201.27
2022-12-28T08:38:26.567Z,99204.66
2022-12-28T08:40:57.724Z,99202.04
2022-12-28T08:43:24.948Z,99204.45
2022-12-28T08:46:03.311Z,99199.67
2022-12-28T08:48:30.490Z,99201.33
2022-12-28T08:51:10.136Z,99198.85
2022-12-28T08:53:37.446Z,99197.30
2022-12-28T08:56:07.181Z,99191.45
2022-12-28T08:58:34.526Z,99191.52
2022-12-28T09:01:07.244Z,99192.86
2022-12-28T09:03:37.337Z,99197.14
2022-12-28T09:06:11.161Z,99198.71
2022-12-28T09:08:38.316Z,99190.99
2022-12-28T09:11:08.537Z,99191.70
2022-12-28T09:13:35.660Z,99188.94
2022-12-28T09:16:06.870Z,99189.44
2022-12-28T09:18:34.336Z,99189.41
2022-12-28T09:21:07.538Z,99197.35
2022-12-28T09:23:34.959Z,99193.27
2022-12-28T09:26:19.492Z,99189.98
2022-12-28T09:28:47.903Z,99195.95
2022-12-28T09:31:16.002Z,99198.92
2022-12-28T09:34:34.363Z,99195.87
2022-12-28T09:36:45.725Z,99191.45
2022-12-28T09:39:17.277Z,99180.87
2022-12-28T09:41:49.894Z,99181.87
2022-12-28T09:44:27.565Z,99185.31
2022-12-28T09:47:00.510Z,99186.05
2022-12-28T09:49:38.563Z,99184.81
2022-12-28T09:52:25.733Z,99176.52
2022-12-28T09:54:53.185Z,99177.05
2022-12-28T09:57:20.878Z,99170.14
2022-12-28T09:59:49.972Z,99172.41
2022-12-28T10:02:24.170Z,99171.11
2022-12-28T10:04:51.420Z,99167.33
2022-12-28T10:07:18.461Z,99169.48
2022-12-28T10:09:46.786Z,99169.89
2022-12-28T10:12:16.234Z,99170.74
2022-12-28T10:14:46.563Z,99167.98
2022-12-28T10:17:15.431Z,99160.98
2022-12-28T10:19:46.609Z,99157.08
2022-12-28T10:22:17.287Z,99157.73
2022-12-28T10:24:44.736Z,99153.24
2022-12-28T10:27:21.729Z,99150.67
2022-12-28T10:29:52.025Z,99140.14
2022-12-28T10:32:19.425Z,99136.69
2022-12-28T10:35:02.196Z,99138.84
2022-12-28T10:37:32.381Z,99129.63
2022-12-28T10:40:04.007Z,99123.91
2022-12-28T10:42:31.786Z,99117.26
2022-12-28T10:45:04.307Z,99107.34
2022-12-28T10:47:36.086Z,99094.05
2022-12-28T10:50:36.486Z,99090.29
2022-12-28T10:52:58.772Z,99090.06
2022-12-28T10:55:28.001Z,99076.05
2022-12-28T11:00:44.549Z,99073.44
2022-12-28T11:03:18.795Z,99061.48
2022-12-28T11:05:46.590Z,99051.64
2022-12-28T11:08:14.699Z,99048.29
2022-12-28T11:10:42.174Z,99044.45
2022-12-28T11:13:22.122Z,99045.45
2022-12-28T11:15:49.426Z,99045.05
2022-12-28T11:18:19.380Z,99031.84
2022-12-28T11:20:48.918Z,99021.46
2022-12-28T11:23:22.422Z,99014.41
2022-12-28T11:25:49.683Z,99012.45
2022-12-28T11:28:20.166Z,99010.09
2022-12-28T11:30:50.820Z,99012.21
2022-12-28T11:33:34.339Z,99012.46
2022-12-28T11:36:06.887Z,99006.25
2022-12-28T11:38:39.252Z,99003.88
2022-12-28T11:41:06.436Z,99002.23
2022-12-28T11:43:39.892Z,98994.96
2022-12-28T11:46:28.032Z,98986.33
2022-12-28T11:48:58.905Z,98983.42
2022-12-28T11:51:29.363Z,98981.41
2022-12-28T11:54:04.300Z,98968.55
2022-12-28T11:56:46.423Z,98958.19
2022-12-28T11:59:23.943Z,98956.41
2022-12-28T12:01:53.179Z,98952.07
2022-12-28T12:04:35.848Z,98947.27
2022-12-28T12:07:02.741Z,98936.77
2022-12-28T12:09:35.099Z,98936.30
2022-12-28T12:12:03.925Z,98941.70
2022-12-28T12:14:39.435Z,98937.66
2022-12-28T12:17:20.903Z,98931.48
2022-12-28T12:19:52.294Z,98925.38
2022-12-28T12:22:24.246Z,98920.14
2022-12-28T12:25:06.426Z,98912.37
2022-12-28T12:27:40.039Z,98907.41
2022-12-28T12:30:14.573Z,98899.14
2022-12-28T12:32:48.602Z,98898.26
2022-12-28T12:35:18.153Z,98901.64
2022-12-28T12:38:05.968Z,98901.77
2022-12-28T12:40:45.924Z,98896.07
2022-12-28T12:43:16.998Z,98888.48
2022-12-28T12:46:01.169Z,98887.66
2022-12-28T12:48:41.647Z,98890.73
2022-12-28T12:51:39.008Z,98891.20
2022-12-28T12:54:20.075Z,98893.96
2022-12-28T12:56:53.279Z,98892.25
2022-12-28T12:59:39.241Z,98896.42
2022-12-28T13:02:20.676Z,98890.09
2022-12-28T13:04:47.851Z,98889.08
2022-12-28T13:07:25.656Z,98891.43
2022-12-28T13:09:55.290Z,98891.14
2022-12-28T13:12:24.274Z,98889.02
2022-12-28T13:15:04.891Z,98890.45
2022-12-28T13:17:35.977Z,98886.79
2022-12-28T13:20:19.871Z,98883.90
2022-12-28T13:22:49.156Z,98875.81
2022-12-28T13:25:32.421Z,98869.46
2022-12-28T13:28:03.936Z,98859.73
2022-12-28T13:30:30.918Z,98855.61
2022-12-28T13:33:00.029Z,98852.52
2022-12-28T13:35:31.181Z,98847.89
2022-12-28T13:38:00.143Z,98839.88
2022-12-28T13:40:27.132Z,98842.11
2022-12-28T13:43:24.405Z,98837.48
2022-12-28T13:45:57.638Z,98836.02
2022-12-28T13:48:25.948Z,98833.39
2022-12-28T13:50:53.509Z,98832.77
2022-12-28T13:53:25.508Z,98831.52
2022-12-28T13:55:57.131Z,98833.39
2022-12-28T13:58:48.008Z,98836.67
2022-12-28T14:01:19.611Z,98837.37
2022-12-28T14:03:47.126Z,98845.08
2022-12-28T14:06:16.624Z,98850.58
2022-12-28T14:08:44.189Z,98851.05
2022-12-28T14:11:11.747Z,98846.40
2022-12-28T14:13:39.416Z,98841.02
2022-12-28T14:16:08.331Z,98832.23
2022-12-28T14:18:35.682Z,98837.13
2022-12-28T14:21:04.123Z,98835.64
2022-12-28T14:23:34.660Z,98841.05
2022-12-28T14:26:04.135Z,98841.48
2022-12-28T14:28:36.993Z,98837.50
2022-12-28T14:31:05.953Z,98842.63
2022-12-28T14:33:38.458Z,98841.38
2022-12-28T14:36:08.173Z,98841.22
2022-12-28T14:38:40.221Z,98845.15
2022-12-28T14:41:07.318Z,98844.67
2022-12-28T14:43:36.141Z,98841.33
2022-12-28T14:46:28.836Z,98842.45
2022-12-28T14:48:56.708Z,98839.96
2022-12-28T14:51:29.258Z,98841.08
2022-12-28T14:54:26.986Z,98842.73
2022-12-28T14:57:01.075Z,98844.93
2022-12-28T14:59:33.580Z,98834.09
2022-12-28T15:02:01.010Z,98825.36
2022-12-28T15:04:35.126Z,98821.06
2022-12-28T15:07:01.935Z,98825.77
2022-12-28T15:09:28.749Z,98821.84
2022-12-28T15:12:12.834Z,98820.78
2022-12-28T15:14:39.733Z,98818.83
2022-12-28T15:17:07.497Z,98815.91
2022-12-28T15:19:34.565Z,98813.58
2022-12-28T15:22:02.045Z,98810.44
2022-12-28T15:24:33.865Z,98806.37
2022-12-28T15:27:02.797Z,98807.44
2022-12-28T15:30:03.842Z,98802.90
2022-12-28T15:32:16.474Z,98800.63
2022-12-28T15:34:43.266Z,98797.74
2022-12-28T15:37:10.062Z,98796.42
2022-12-28T15:39:36.796Z,98793.29
2022-12-28T15:42:03.601Z,98792.56
2022-12-28T15:44:30.326Z,98790.61
2022-12-28T15:46:57.205Z,98790.16
2022-12-28T15:49:24.022Z,98785.56
2022-12-28T15:51:51.157Z,98782.63
2022-12-28T15:54:18.743Z,98777.85
2022-12-28T15:56:52.406Z,98772.17
2022-12-28T15:59:19.524Z,98765.94
2022-12-28T16:01:47.462Z,98764.36
2022-12-28T16:04:14.701Z,98765.11
2022-12-28T16:06:44.621Z,98761.24
2022-12-28T16:09:13.395Z,98762.81
2022-12-28T16:11:41.276Z,98758.42
2022-12-28T16:14:15.011Z,98761.66
2022-12-28T16:16:43.509Z,98761.58
2022-12-28T16:19:25.945Z,98760.20
2022-12-28T16:21:53.120Z,98752.84
2022-12-28T16:24:23.794Z,98757.58
2022-12-28T16:27:06.720Z,98754.98
2022-12-28T16:29:33.560Z,98760.37
2022-12-28T16:32:01.608Z,98760.34
2022-12-28T16:34:43.831Z,98759.81
2022-12-28T16:37:26.152Z,98754.62
2022-12-28T16:39:52.959Z,98753.17
2022-12-28T16:42:19.689Z,98754.17
2022-12-28T16:44:46.607Z,98752.19
2022-12-28T16:47:13.399Z,98755.20
2022-12-28T16:49:41.124Z,98756.17
2022-12-28T16:52:07.883Z,98756.37
2022-12-28T16:54:35.312Z,98755.00
2022-12-28T16:57:02.337Z,98747.54
2022-12-28T16:59:29.592Z,98748.73
2022-12-28T17:02:13.480Z,98750.02
2022-12-28T17:04:40.666Z,98739.48
2022-12-28T17:07:07.418Z,98731.14
2022-12-28T17:09:35.589Z,98733.58
2022-12-28T17:12:02.527Z,98736.41
2022-12-28T17:14:37.403Z,98740.75
2022-12-28T17:17:06.793Z,98736.94
2022-12-28T17:19:34.129Z,98740.66
2022-12-28T17:22:00.813Z,98743.48
2022-12-28T17:24:27.649Z,98745.18
2022-12-28T17:26:54.397Z,98748.02
2022-12-28T17:29:21.258Z,98753.01
2022-12-28T17:31:48.245Z,98756.56
2022-12-28T17:34:15.212Z,98759.04
2022-12-28T17:36:42.099Z,98760.81
2022-12-28T17:39:08.880Z,98757.84
2022-12-28T17:41:36.799Z,98755.84
2022-12-28T17:44:04.912Z,98753.46
2022-12-28T17:46:37.805Z,98759.56
2022-12-28T17:49:04.675Z,98756.95
2022-12-28T17:51:32.779Z,98755.05
2022-12-28T17:53:59.585Z,98753.98
2022-12-28T17:56:27.200Z,98748.29
2022-12-28T17:58:56.792Z,98742.54
2022-12-28T18:01:25.174Z,98745.84
2022-12-28T18:03:52.239Z,98742.09
2022-12-28T18:06:19.189Z,98737.66
2022-12-28T18:08:46.023Z,98736.41
2022-12-28T18:11:12.742Z,98737.42
2022-12-28T18:13:41.096Z,98737.77
2022-12-28T18:16:11.841Z,98740.58
2022-12-28T18:18:38.615Z,98738.49
2022-12-28T18:21:08.635Z,98743.04
2022-12-28T18:23:35.559Z,98745.05
2022-12-28T18:26:06.835Z,98741.93
2022-12-28T18:28:34.995Z,98745.79
2022-12-28T18:31:18.286Z,98740.14
2022-12-28T18:33:45.570Z,98737.15
2022-12-28T18:36:17.306Z,98734.44
2022-12-28T18:38:46.326Z,98731.98
2022-12-28T18:41:16.535Z,98728.52
2022-12-28T18:43:43.550Z,98728.33
2022-12-28T18:46:11.675Z,98732.45
2022-12-28T18:48:40.445Z,98737.09
2022-12-28T18:51:11.643Z,98739.01
2022-12-28T18:53:39.528Z,98735.21
2022-12-28T18:56:08.694Z,98737.48
2022-12-28T18:58:37.541Z,98733.39
2022-12-28T19:01:32.441Z,98737.20
2022-12-28T19:04:00.770Z,98740.42
2022-12-28T19:06:27.968Z,98739.70
2022-12-28T19:08:59.216Z,98738.45
2022-12-28T19:11:26.368Z,98736.08
2022-12-28T19:13:53.338Z,98731.32
2022-12-28T19:16:27.192Z,98735.79
2022-12-28T19:18:57.823Z,98739.42
2022-12-28T19:21:41.113Z,98742.37
2022-12-28T19:24:17.957Z,98741.98
2022-12-28T19:26:46.146Z,98742.62
2022-12-28T19:29:14.388Z,98734.20
2022-12-28T19:31:42.188Z,98730.88
2022-12-28T19:34:09.331Z,98721.90
2022-12-28T19:36:36.264Z,98722.77
2022-12-28T19:39:03.243Z,98721.64
2022-12-28T19:41:30.028Z,98723.41
2022-12-28T19:43:57.026Z,98724.72
2022-12-28T19:46:31.254Z,98722.31
2022-12-28T19:49:00.167Z,98721.61
2022-12-28T19:51:31.122Z,98717.51
2022-12-28T19:53:59.502Z,98718.13
2022-12-28T19:56:26.490Z,98716.56
2022-12-28T19:58:56.626Z,98710.29
2022-12-28T20:01:29.682Z,98705.71
2022-12-28T20:03:59.328Z,98703.62
2022-12-28T20:06:29.918Z,98698.66
2022-12-28T20:09:14.132Z,98697.30
2022-12-28T20:11:43.197Z,98692.39
2022-12-28T20:14:12.482Z,98690.91
2022-12-28T20:16:40.732Z,98690.60
2022-12-28T20:19:09.145Z,98685.71
2022-12-28T20:21:37.438Z,98686.33
2022-12-28T20:24:05.375Z,98687.77
2022-12-28T20:26:32.837Z,98684.98
2022-12-28T20:29:01.295Z,98681.91
2022-12-28T20:31:28.187Z,98682.92
2022-12-28T20:34:10.681Z,98679.63
2022-12-28T20:36:37.491Z,98682.95
2022-12-28T20:39:04.398Z,98682.92
2022-12-28T20:41:48.068Z,98686.49
2022-12-28T20:44:20.629Z,98689.98
2022-12-28T20:46:47.358Z,98689.59
2022-12-28T20:49:14.178Z,98684.61
2022-12-28T20:51:42.409Z,98678.91
2022-12-28T20:54:10.724Z,98673.77
2022-12-28T20:56:38.636Z,98669.17
2022-12-28T20:59:05.867Z,98667.38
2022-12-28T21:01:33.313Z,98662.43
2022-12-28T21:04:00.251Z,98659.83
2022-12-28T21:06:27.372Z,98658.96
2022-12-28T21:08:54.152Z,98654.80
2022-12-28T21:11:36.220Z,98653.64
2022-12-28T21:14:03.100Z,98652.44
2022-12-28T21:16:29.826Z,98654.64
2022-12-28T21:18:57.428Z,98653.58
2022-12-28T21:21:24.725Z,98647.73
2022-12-28T21:23:52.836Z,98642.96
2022-12-28T21:26:20.643Z,98637.66
2022-12-28T21:28:47.678Z,98635.92
2022-12-28T21:31:14.866Z,98627.38
2022-12-28T21:33:41.782Z,98622.86
2022-12-28T21:36:14.595Z,98621.70
2022-12-28T21:38:42.684Z,98620.54
2022-12-28T21:41:13.021Z,98619.08
2022-12-28T21:43:40.080Z,98617.29
2022-12-28T21:46:11.918Z,98607.46
2022-12-28T21:48:39.230Z,98601.45
2022-12-28T21:51:31.227Z,98598.43
2022-12-28T21:53:59.703Z,98597.96
2022-12-28T21:56:26.753Z,98596.71
2022-12-28T21:58:53.933Z,98597.42
2022-12-28T22:01:37.552Z,98594.45
2022-12-28T22:04:20.257Z,98594.88
2022-12-28T22:06:46.921Z,98591.33
2022-12-28T22:09:29.035Z,98589.00
2022-12-28T22:12:11.312Z,98596.41
2022-12-28T22:14:38.092Z,98593.89
2022-12-28T22:17:09.573Z,98592.05
2022-12-28T22:19:39.346Z,98589.77
2022-12-28T22:22:06.106Z,98586.06
2022-12-28T22:24:32.807Z,98581.34
2022-12-28T22:26:59.612Z,98575.67
2022-12-28T22:29:26.356Z,98575.45
2022-12-28T22:31:53.101Z,98578.27
2022-12-28T22:34:19.941Z,98584.94
2022-12-28T22:36:46.684Z,98593.20
2022-12-28T22:39:13.400Z,98591.39
2022-12-28T22:41:41.097Z,98593.81
2022-12-28T22:44:10.228Z,98593.48
2022-12-28T22:46:37.001Z,98594.08
2022-12-28T22:49:03.803Z,98601.15
2022-12-28T22:51:30.510Z,98596.66
2022-12-28T22:53:57.261Z,98599.83
2022-12-28T22:56:23.963Z,98598.45
2022-12-28T22:58:50.749Z,98602.86
2022-12-28T23:01:19.908Z,98602.39
2022-12-28T23:03:47.954Z,98600.05
2022-12-28T23:06:17.171Z,98600.63
2022-12-28T23:08:43.952Z,98600.48
2022-12-28T23:11:29.731Z,98597.23
2022-12-28T23:14:18.238Z,98596.09
2022-12-28T23:16:45.049Z,98588.15
2022-12-28T23:19:27.971Z,98588.27
2022-12-28T23:22:10.053Z,98590.84
2022-12-28T23:24:52.385Z,98587.83
2022-12-28T23:27:20.120Z,98579.61
2022-12-28T23:29:46.975Z,98576.48
2022-12-28T23:32:14.203Z,98580.18
2022-12-28T23:34:40.975Z,98582.52
2022-12-28T23:37:07.765Z,98592.35
2022-12-28T23:39:34.966Z,98591.91
2022-12-28T23:42:01.709Z,98591.92
2022-12-28T23:44:28.566Z,98595.47
2022-12-28T23:46:59.042Z,98590.23
2022-12-28T23:49:26.846Z,98589.40
2022-12-28T23:51:54.045Z,98592.14
2022-12-28T23:54:20.865Z,98593.73
2022-12-28T23:56:48.907Z,98597.58
2022-12-28T23:59:16.084Z,98582.41
